sensor_id;sensor_type;location;lat;lon;timestamp;P1;durP1;ratioP1;P2;durP2;ratioP2
1346;SDS011;667;48.796;9.480;2024-02-28T00:01:36;17.17;;;10.98;;
1346;SDS011;667;48.796;9.480;2024-02-28T00:04:02;14.53;;;11.90;;
1346;SDS011;667;48.796;9.480;2024-02-28T00:06:27;14.23;;;12.67;;
1346;SDS011;667;48.796;9.480;2024-02-28T00:08:53;20.20;;;12.57;;
1346;SDS011;667;48.796;9.480;2024-02-28T00:11:19;15.75;;;12.52;;
1346;SDS011;667;48.796;9.480;2024-02-28T00:13:45;18.30;;;12.57;;
1346;SDS011;667;48.796;9.480;2024-02-28T00:16:11;15.20;;;11.43;;
1346;SDS011;667;48.796;9.480;2024-02-28T00:18:37;14.17;;;11.13;;
1346;SDS011;667;48.796;9.480;2024-02-28T00:21:02;11.93;;;10.73;;
1346;SDS011;667;48.796;9.480;2024-02-28T00:23:29;18.40;;;13.20;;
1346;SDS011;667;48.796;9.480;2024-02-28T00:25:54;16.05;;;12.95;;
1346;SDS011;667;48.796;9.480;2024-02-28T00:28:20;19.17;;;13.17;;
1346;SDS011;667;48.796;9.480;2024-02-28T00:30:46;20.33;;;13.03;;
1346;SDS011;667;48.796;9.480;2024-02-28T00:33:11;18.23;;;12.87;;
1346;SDS011;667;48.796;9.480;2024-02-28T00:35:37;15.77;;;12.00;;
1346;SDS011;667;48.796;9.480;2024-02-28T00:38:04;16.63;;;12.35;;
1346;SDS011;667;48.796;9.480;2024-02-28T00:40:30;15.67;;;12.73;;
1346;SDS011;667;48.796;9.480;2024-02-28T00:42:56;16.57;;;12.53;;
1346;SDS011;667;48.796;9.480;2024-02-28T00:45:22;15.00;;;11.75;;
1346;SDS011;667;48.796;9.480;2024-02-28T00:47:48;16.73;;;12.27;;
1346;SDS011;667;48.796;9.480;2024-02-28T00:50:13;17.27;;;13.00;;
1346;SDS011;667;48.796;9.480;2024-02-28T00:52:39;14.93;;;11.77;;
1346;SDS011;667;48.796;9.480;2024-02-28T00:55:05;16.67;;;12.50;;
1346;SDS011;667;48.796;9.480;2024-02-28T00:57:31;19.07;;;12.57;;
1346;SDS011;667;48.796;9.480;2024-02-28T00:59:57;14.13;;;11.43;;
1346;SDS011;667;48.796;9.480;2024-02-28T01:02:22;17.73;;;12.33;;
1346;SDS011;667;48.796;9.480;2024-02-28T01:04:48;14.63;;;11.57;;
1346;SDS011;667;48.796;9.480;2024-02-28T01:07:13;18.83;;;13.07;;
1346;SDS011;667;48.796;9.480;2024-02-28T01:09:39;18.27;;;12.10;;
1346;SDS011;667;48.796;9.480;2024-02-28T01:12:04;15.97;;;12.03;;
1346;SDS011;667;48.796;9.480;2024-02-28T01:14:30;18.33;;;13.50;;
1346;SDS011;667;48.796;9.480;2024-02-28T01:16:56;23.47;;;16.30;;
1346;SDS011;667;48.796;9.480;2024-02-28T01:19:21;22.90;;;17.00;;
1346;SDS011;667;48.796;9.480;2024-02-28T01:21:47;29.83;;;18.50;;
1346;SDS011;667;48.796;9.480;2024-02-28T01:24:12;27.67;;;16.53;;
1346;SDS011;667;48.796;9.480;2024-02-28T01:26:38;29.10;;;19.33;;
1346;SDS011;667;48.796;9.480;2024-02-28T01:29:04;26.90;;;18.90;;
1346;SDS011;667;48.796;9.480;2024-02-28T01:31:30;25.70;;;17.42;;
1346;SDS011;667;48.796;9.480;2024-02-28T01:33:56;27.07;;;17.87;;
1346;SDS011;667;48.796;9.480;2024-02-28T01:36:22;27.70;;;19.33;;
1346;SDS011;667;48.796;9.480;2024-02-28T01:38:48;25.97;;;19.87;;
1346;SDS011;667;48.796;9.480;2024-02-28T01:41:13;25.53;;;17.07;;
1346;SDS011;667;48.796;9.480;2024-02-28T01:43:39;26.37;;;18.43;;
1346;SDS011;667;48.796;9.480;2024-02-28T01:48:53;26.35;;;16.90;;
1346;SDS011;667;48.796;9.480;2024-02-28T01:51:23;25.13;;;17.13;;
1346;SDS011;667;48.796;9.480;2024-02-28T01:53:52;25.10;;;17.30;;
1346;SDS011;667;48.796;9.480;2024-02-28T01:56:19;23.45;;;17.70;;
1346;SDS011;667;48.796;9.480;2024-02-28T01:58:47;27.48;;;17.70;;
1346;SDS011;667;48.796;9.480;2024-02-28T02:01:14;28.30;;;17.90;;
1346;SDS011;667;48.796;9.480;2024-02-28T02:03:40;26.70;;;18.92;;
1346;SDS011;667;48.796;9.480;2024-02-28T02:06:07;22.70;;;16.30;;
1346;SDS011;667;48.796;9.480;2024-02-28T02:08:33;28.63;;;18.43;;
1346;SDS011;667;48.796;9.480;2024-02-28T02:10:59;26.98;;;18.63;;
1346;SDS011;667;48.796;9.480;2024-02-28T02:13:25;29.67;;;18.03;;
1346;SDS011;667;48.796;9.480;2024-02-28T02:15:50;26.20;;;18.40;;
1346;SDS011;667;48.796;9.480;2024-02-28T02:18:16;29.70;;;18.10;;
1346;SDS011;667;48.796;9.480;2024-02-28T02:20:43;26.80;;;17.30;;
1346;SDS011;667;48.796;9.480;2024-02-28T02:23:11;29.42;;;18.50;;
1346;SDS011;667;48.796;9.480;2024-02-28T02:25:47;30.77;;;19.00;;
1346;SDS011;667;48.796;9.480;2024-02-28T02:28:14;28.58;;;17.83;;
1346;SDS011;667;48.796;9.480;2024-02-28T02:30:39;28.80;;;19.13;;
1346;SDS011;667;48.796;9.480;2024-02-28T02:33:06;24.17;;;17.30;;
1346;SDS011;667;48.796;9.480;2024-02-28T02:35:33;25.63;;;17.20;;
1346;SDS011;667;48.796;9.480;2024-02-28T02:37:59;25.05;;;17.10;;
1346;SDS011;667;48.796;9.480;2024-02-28T02:40:25;26.95;;;17.45;;
1346;SDS011;667;48.796;9.480;2024-02-28T02:42:50;25.63;;;18.27;;
1346;SDS011;667;48.796;9.480;2024-02-28T02:45:16;24.97;;;17.60;;
1346;SDS011;667;48.796;9.480;2024-02-28T02:47:41;27.83;;;17.50;;
1346;SDS011;667;48.796;9.480;2024-02-28T02:50:09;28.98;;;18.05;;
1346;SDS011;667;48.796;9.480;2024-02-28T02:52:34;27.40;;;18.67;;
1346;SDS011;667;48.796;9.480;2024-02-28T02:55:00;27.53;;;18.43;;
1346;SDS011;667;48.796;9.480;2024-02-28T02:57:26;27.23;;;18.10;;
1346;SDS011;667;48.796;9.480;2024-02-28T02:59:51;29.27;;;16.60;;
1346;SDS011;667;48.796;9.480;2024-02-28T03:02:17;24.60;;;17.80;;
1346;SDS011;667;48.796;9.480;2024-02-28T03:04:42;26.00;;;17.80;;
1346;SDS011;667;48.796;9.480;2024-02-28T03:07:08;27.60;;;18.30;;
1346;SDS011;667;48.796;9.480;2024-02-28T03:09:34;25.37;;;15.93;;
1346;SDS011;667;48.796;9.480;2024-02-28T03:11:59;24.50;;;17.37;;
1346;SDS011;667;48.796;9.480;2024-02-28T03:14:25;24.07;;;17.83;;
1346;SDS011;667;48.796;9.480;2024-02-28T03:16:52;25.23;;;18.55;;
1346;SDS011;667;48.796;9.480;2024-02-28T03:19:18;24.70;;;17.25;;
1346;SDS011;667;48.796;9.480;2024-02-28T03:21:44;25.37;;;17.17;;
1346;SDS011;667;48.796;9.480;2024-02-28T03:24:09;27.07;;;16.10;;
1346;SDS011;667;48.796;9.480;2024-02-28T03:26:35;29.20;;;19.30;;
1346;SDS011;667;48.796;9.480;2024-02-28T03:29:01;24.53;;;18.20;;
1346;SDS011;667;48.796;9.480;2024-02-28T03:31:26;25.80;;;17.80;;
1346;SDS011;667;48.796;9.480;2024-02-28T03:33:52;26.80;;;17.63;;
1346;SDS011;667;48.796;9.480;2024-02-28T03:36:18;23.67;;;17.03;;
1346;SDS011;667;48.796;9.480;2024-02-28T03:38:43;24.53;;;16.97;;
1346;SDS011;667;48.796;9.480;2024-02-28T03:41:09;27.47;;;17.80;;
1346;SDS011;667;48.796;9.480;2024-02-28T03:43:35;23.60;;;16.63;;
1346;SDS011;667;48.796;9.480;2024-02-28T03:46:00;25.87;;;17.50;;
1346;SDS011;667;48.796;9.480;2024-02-28T03:48:26;26.67;;;18.15;;
1346;SDS011;667;48.796;9.480;2024-02-28T03:50:52;26.30;;;17.10;;
1346;SDS011;667;48.796;9.480;2024-02-28T03:53:18;25.30;;;18.07;;
1346;SDS011;667;48.796;9.480;2024-02-28T03:55:43;24.83;;;17.80;;
1346;SDS011;667;48.796;9.480;2024-02-28T03:58:09;25.47;;;17.90;;
1346;SDS011;667;48.796;9.480;2024-02-28T04:00:35;23.95;;;18.08;;
1346;SDS011;667;48.796;9.480;2024-02-28T04:03:01;25.60;;;19.17;;
1346;SDS011;667;48.796;9.480;2024-02-28T04:05:28;23.58;;;17.73;;
1346;SDS011;667;48.796;9.480;2024-02-28T04:07:54;28.25;;;17.05;;
1346;SDS011;667;48.796;9.480;2024-02-28T04:10:20;26.13;;;19.37;;
1346;SDS011;667;48.796;9.480;2024-02-28T04:12:45;25.80;;;17.40;;
1346;SDS011;667;48.796;9.480;2024-02-28T04:15:11;27.77;;;18.63;;
1346;SDS011;667;48.796;9.480;2024-02-28T04:17:40;26.75;;;17.58;;
1346;SDS011;667;48.796;9.480;2024-02-28T04:20:08;23.03;;;17.20;;
1346;SDS011;667;48.796;9.480;2024-02-28T04:22:34;23.02;;;17.15;;
1346;SDS011;667;48.796;9.480;2024-02-28T04:25:00;25.00;;;17.10;;
1346;SDS011;667;48.796;9.480;2024-02-28T04:27:25;25.77;;;18.80;;
1346;SDS011;667;48.796;9.480;2024-02-28T04:29:51;27.27;;;19.27;;
1346;SDS011;667;48.796;9.480;2024-02-28T04:32:16;26.80;;;18.73;;
1346;SDS011;667;48.796;9.480;2024-02-28T04:34:42;30.53;;;19.17;;
1346;SDS011;667;48.796;9.480;2024-02-28T04:37:07;26.83;;;17.13;;
1346;SDS011;667;48.796;9.480;2024-02-28T04:39:33;29.30;;;17.50;;
1346;SDS011;667;48.796;9.480;2024-02-28T04:41:59;26.83;;;18.17;;
1346;SDS011;667;48.796;9.480;2024-02-28T04:44:24;30.63;;;18.03;;
1346;SDS011;667;48.796;9.480;2024-02-28T04:46:50;24.73;;;17.53;;
1346;SDS011;667;48.796;9.480;2024-02-28T04:49:15;25.23;;;17.47;;
1346;SDS011;667;48.796;9.480;2024-02-28T04:51:41;28.10;;;18.10;;
1346;SDS011;667;48.796;9.480;2024-02-28T04:54:06;25.83;;;16.73;;
1346;SDS011;667;48.796;9.480;2024-02-28T04:56:32;30.27;;;18.87;;
1346;SDS011;667;48.796;9.480;2024-02-28T04:58:57;26.87;;;17.97;;
1346;SDS011;667;48.796;9.480;2024-02-28T05:01:23;27.97;;;19.27;;
1346;SDS011;667;48.796;9.480;2024-02-28T05:03:48;32.77;;;19.70;;
1346;SDS011;667;48.796;9.480;2024-02-28T05:06:14;28.67;;;19.43;;
1346;SDS011;667;48.796;9.480;2024-02-28T05:08:39;27.43;;;19.83;;
1346;SDS011;667;48.796;9.480;2024-02-28T05:11:05;30.67;;;19.20;;
1346;SDS011;667;48.796;9.480;2024-02-28T05:13:30;31.07;;;19.30;;
1346;SDS011;667;48.796;9.480;2024-02-28T05:15:56;29.53;;;19.00;;
1346;SDS011;667;48.796;9.480;2024-02-28T05:18:21;28.00;;;18.40;;
1346;SDS011;667;48.796;9.480;2024-02-28T05:20:47;25.43;;;17.93;;
1346;SDS011;667;48.796;9.480;2024-02-28T05:23:13;25.13;;;17.13;;
1346;SDS011;667;48.796;9.480;2024-02-28T05:25:38;29.57;;;18.70;;
1346;SDS011;667;48.796;9.480;2024-02-28T05:28:04;25.23;;;17.33;;
1346;SDS011;667;48.796;9.480;2024-02-28T05:30:30;29.17;;;17.93;;
1346;SDS011;667;48.796;9.480;2024-02-28T05:32:55;29.20;;;18.50;;
1346;SDS011;667;48.796;9.480;2024-02-28T05:35:21;29.23;;;18.90;;
1346;SDS011;667;48.796;9.480;2024-02-28T05:37:46;23.87;;;17.00;;
1346;SDS011;667;48.796;9.480;2024-02-28T05:40:12;28.77;;;19.10;;
1346;SDS011;667;48.796;9.480;2024-02-28T05:42:38;28.17;;;17.37;;
1346;SDS011;667;48.796;9.480;2024-02-28T05:45:05;23.70;;;16.25;;
1346;SDS011;667;48.796;9.480;2024-02-28T05:47:31;26.40;;;17.10;;
1346;SDS011;667;48.796;9.480;2024-02-28T05:49:57;24.80;;;17.33;;
1346;SDS011;667;48.796;9.480;2024-02-28T05:52:23;26.63;;;17.13;;
1346;SDS011;667;48.796;9.480;2024-02-28T05:54:50;26.38;;;18.15;;
1346;SDS011;667;48.796;9.480;2024-02-28T05:57:16;28.20;;;18.30;;
1346;SDS011;667;48.796;9.480;2024-02-28T05:59:42;20.03;;;14.93;;
1346;SDS011;667;48.796;9.480;2024-02-28T06:02:07;27.88;;;17.45;;
1346;SDS011;667;48.796;9.480;2024-02-28T06:04:33;24.17;;;17.30;;
1346;SDS011;667;48.796;9.480;2024-02-28T06:06:58;27.63;;;17.53;;
1346;SDS011;667;48.796;9.480;2024-02-28T06:09:25;23.00;;;16.03;;
1346;SDS011;667;48.796;9.480;2024-02-28T06:11:52;24.90;;;17.15;;
1346;SDS011;667;48.796;9.480;2024-02-28T06:14:18;25.90;;;17.00;;
1346;SDS011;667;48.796;9.480;2024-02-28T06:16:46;28.27;;;17.93;;
1346;SDS011;667;48.796;9.480;2024-02-28T06:19:12;27.65;;;17.45;;
1346;SDS011;667;48.796;9.480;2024-02-28T06:21:38;27.00;;;16.87;;
1346;SDS011;667;48.796;9.480;2024-02-28T06:24:03;23.57;;;15.83;;
1346;SDS011;667;48.796;9.480;2024-02-28T06:26:29;24.87;;;15.50;;
1346;SDS011;667;48.796;9.480;2024-02-28T06:28:56;24.05;;;16.73;;
1346;SDS011;667;48.796;9.480;2024-02-28T06:31:26;24.95;;;17.73;;
1346;SDS011;667;48.796;9.480;2024-02-28T06:33:54;25.38;;;16.75;;
1346;SDS011;667;48.796;9.480;2024-02-28T06:36:20;26.97;;;17.57;;
1346;SDS011;667;48.796;9.480;2024-02-28T06:38:45;25.87;;;17.47;;
1346;SDS011;667;48.796;9.480;2024-02-28T06:41:11;26.53;;;17.73;;
1346;SDS011;667;48.796;9.480;2024-02-28T06:43:37;26.07;;;17.37;;
1346;SDS011;667;48.796;9.480;2024-02-28T06:46:03;24.40;;;16.90;;
1346;SDS011;667;48.796;9.480;2024-02-28T06:48:29;26.58;;;16.38;;
1346;SDS011;667;48.796;9.480;2024-02-28T06:50:55;24.33;;;15.10;;
1346;SDS011;667;48.796;9.480;2024-02-28T06:53:21;22.05;;;16.02;;
1346;SDS011;667;48.796;9.480;2024-02-28T06:55:47;23.60;;;16.70;;
1346;SDS011;667;48.796;9.480;2024-02-28T06:58:13;28.52;;;16.42;;
1346;SDS011;667;48.796;9.480;2024-02-28T07:00:39;24.48;;;16.30;;
1346;SDS011;667;48.796;9.480;2024-02-28T07:03:05;24.53;;;14.80;;
1346;SDS011;667;48.796;9.480;2024-02-28T07:05:31;25.90;;;16.55;;
1346;SDS011;667;48.796;9.480;2024-02-28T07:07:58;23.13;;;15.98;;
1346;SDS011;667;48.796;9.480;2024-02-28T07:10:24;24.60;;;15.25;;
1346;SDS011;667;48.796;9.480;2024-02-28T07:12:51;21.35;;;15.73;;
1346;SDS011;667;48.796;9.480;2024-02-28T07:15:16;22.37;;;15.77;;
1346;SDS011;667;48.796;9.480;2024-02-28T07:17:45;21.17;;;14.10;;
1346;SDS011;667;48.796;9.480;2024-02-28T07:20:11;21.53;;;15.27;;
1346;SDS011;667;48.796;9.480;2024-02-28T07:22:37;25.67;;;17.40;;
1346;SDS011;667;48.796;9.480;2024-02-28T07:25:03;21.23;;;16.93;;
1346;SDS011;667;48.796;9.480;2024-02-28T07:27:30;21.25;;;13.88;;
1346;SDS011;667;48.796;9.480;2024-02-28T07:29:56;24.27;;;16.40;;
1346;SDS011;667;48.796;9.480;2024-02-28T07:32:21;22.27;;;14.77;;
1346;SDS011;667;48.796;9.480;2024-02-28T07:34:48;22.67;;;14.60;;
1346;SDS011;667;48.796;9.480;2024-02-28T07:37:13;23.43;;;15.27;;
1346;SDS011;667;48.796;9.480;2024-02-28T07:39:39;21.60;;;14.83;;
1346;SDS011;667;48.796;9.480;2024-02-28T07:42:04;22.80;;;15.60;;
1346;SDS011;667;48.796;9.480;2024-02-28T07:44:30;25.70;;;15.83;;
1346;SDS011;667;48.796;9.480;2024-02-28T07:46:57;22.63;;;14.93;;
1346;SDS011;667;48.796;9.480;2024-02-28T07:49:23;26.98;;;16.70;;
1346;SDS011;667;48.796;9.480;2024-02-28T07:51:49;22.80;;;15.40;;
1346;SDS011;667;48.796;9.480;2024-02-28T07:54:15;22.30;;;16.85;;
1346;SDS011;667;48.796;9.480;2024-02-28T07:56:41;25.23;;;17.63;;
1346;SDS011;667;48.796;9.480;2024-02-28T07:59:06;23.73;;;16.20;;
1346;SDS011;667;48.796;9.480;2024-02-28T08:01:32;22.37;;;16.60;;
1346;SDS011;667;48.796;9.480;2024-02-28T08:03:58;22.13;;;16.60;;
1346;SDS011;667;48.796;9.480;2024-02-28T08:06:24;21.98;;;15.13;;
1346;SDS011;667;48.796;9.480;2024-02-28T08:08:50;22.70;;;16.13;;
1346;SDS011;667;48.796;9.480;2024-02-28T08:11:16;26.10;;;15.90;;
1346;SDS011;667;48.796;9.480;2024-02-28T08:13:42;23.13;;;16.80;;
1346;SDS011;667;48.796;9.480;2024-02-28T08:16:08;24.85;;;16.85;;
1346;SDS011;667;48.796;9.480;2024-02-28T08:18:34;22.17;;;15.10;;
1346;SDS011;667;48.796;9.480;2024-02-28T08:21:00;28.17;;;16.93;;
1346;SDS011;667;48.796;9.480;2024-02-28T08:23:27;23.80;;;16.65;;
1346;SDS011;667;48.796;9.480;2024-02-28T08:25:52;23.47;;;16.73;;
1346;SDS011;667;48.796;9.480;2024-02-28T08:28:19;20.15;;;15.10;;
1346;SDS011;667;48.796;9.480;2024-02-28T08:30:45;22.60;;;15.63;;
1346;SDS011;667;48.796;9.480;2024-02-28T08:33:10;24.37;;;16.80;;
1346;SDS011;667;48.796;9.480;2024-02-28T08:35:36;19.87;;;15.77;;
1346;SDS011;667;48.796;9.480;2024-02-28T08:38:01;21.63;;;15.90;;
1346;SDS011;667;48.796;9.480;2024-02-28T08:40:28;24.42;;;16.90;;
1346;SDS011;667;48.796;9.480;2024-02-28T08:42:56;21.63;;;15.45;;
1346;SDS011;667;48.796;9.480;2024-02-28T08:45:22;20.38;;;16.38;;
1346;SDS011;667;48.796;9.480;2024-02-28T08:47:48;22.83;;;16.73;;
1346;SDS011;667;48.796;9.480;2024-02-28T08:50:13;21.00;;;15.43;;
1346;SDS011;667;48.796;9.480;2024-02-28T08:52:39;23.97;;;15.30;;
1346;SDS011;667;48.796;9.480;2024-02-28T08:55:05;22.20;;;15.07;;
1346;SDS011;667;48.796;9.480;2024-02-28T08:57:31;21.07;;;15.53;;
1346;SDS011;667;48.796;9.480;2024-02-28T08:59:56;23.20;;;15.40;;
1346;SDS011;667;48.796;9.480;2024-02-28T09:02:22;22.20;;;17.03;;
1346;SDS011;667;48.796;9.480;2024-02-28T09:04:47;25.80;;;17.70;;
1346;SDS011;667;48.796;9.480;2024-02-28T09:07:17;23.80;;;15.93;;
1346;SDS011;667;48.796;9.480;2024-02-28T09:09:44;25.38;;;16.65;;
1346;SDS011;667;48.796;9.480;2024-02-28T09:12:10;26.23;;;17.55;;
1346;SDS011;667;48.796;9.480;2024-02-28T09:14:36;21.73;;;15.53;;
1346;SDS011;667;48.796;9.480;2024-02-28T09:17:01;21.40;;;15.80;;
1346;SDS011;667;48.796;9.480;2024-02-28T09:19:30;20.80;;;15.18;;
1346;SDS011;667;48.796;9.480;2024-02-28T09:21:56;24.15;;;16.85;;
1346;SDS011;667;48.796;9.480;2024-02-28T09:24:23;22.95;;;15.77;;
1346;SDS011;667;48.796;9.480;2024-02-28T09:26:49;24.63;;;16.80;;
1346;SDS011;667;48.796;9.480;2024-02-28T09:29:14;23.00;;;17.10;;
1346;SDS011;667;48.796;9.480;2024-02-28T09:31:40;24.10;;;17.10;;
1346;SDS011;667;48.796;9.480;2024-02-28T09:34:05;23.23;;;16.73;;
1346;SDS011;667;48.796;9.480;2024-02-28T09:36:43;25.92;;;16.75;;
1346;SDS011;667;48.796;9.480;2024-02-28T09:39:11;21.85;;;15.93;;
1346;SDS011;667;48.796;9.480;2024-02-28T09:41:43;24.52;;;16.98;;
1346;SDS011;667;48.796;9.480;2024-02-28T09:44:09;24.90;;;17.67;;
1346;SDS011;667;48.796;9.480;2024-02-28T09:46:36;22.98;;;16.75;;
1346;SDS011;667;48.796;9.480;2024-02-28T09:49:04;22.27;;;15.53;;
1346;SDS011;667;48.796;9.480;2024-02-28T09:51:34;21.17;;;14.70;;
1346;SDS011;667;48.796;9.480;2024-02-28T09:54:00;24.30;;;15.60;;
1346;SDS011;667;48.796;9.480;2024-02-28T09:56:27;25.58;;;18.58;;
1346;SDS011;667;48.796;9.480;2024-02-28T09:58:53;30.33;;;18.93;;
1346;SDS011;667;48.796;9.480;2024-02-28T10:01:20;25.08;;;17.25;;
1346;SDS011;667;48.796;9.480;2024-02-28T10:03:47;29.70;;;18.88;;
1346;SDS011;667;48.796;9.480;2024-02-28T10:06:20;30.10;;;19.00;;
1346;SDS011;667;48.796;9.480;2024-02-28T10:08:45;30.85;;;17.92;;
1346;SDS011;667;48.796;9.480;2024-02-28T10:11:22;30.92;;;17.80;;
1346;SDS011;667;48.796;9.480;2024-02-28T10:13:48;30.70;;;17.92;;
1346;SDS011;667;48.796;9.480;2024-02-28T10:16:14;28.77;;;17.10;;
1346;SDS011;667;48.796;9.480;2024-02-28T10:18:41;26.93;;;16.93;;
1346;SDS011;667;48.796;9.480;2024-02-28T10:21:08;28.38;;;16.00;;
1346;SDS011;667;48.796;9.480;2024-02-28T10:23:34;22.23;;;16.07;;
1346;SDS011;667;48.796;9.480;2024-02-28T10:26:01;29.65;;;16.80;;
1346;SDS011;667;48.796;9.480;2024-02-28T10:28:27;25.73;;;16.55;;
1346;SDS011;667;48.796;9.480;2024-02-28T10:30:53;26.60;;;16.57;;
1346;SDS011;667;48.796;9.480;2024-02-28T10:33:19;26.98;;;16.98;;
1346;SDS011;667;48.796;9.480;2024-02-28T10:35:45;28.23;;;16.07;;
1346;SDS011;667;48.796;9.480;2024-02-28T10:38:12;24.40;;;15.32;;
1346;SDS011;667;48.796;9.480;2024-02-28T10:40:41;29.55;;;16.83;;
1346;SDS011;667;48.796;9.480;2024-02-28T10:43:10;25.85;;;15.18;;
1346;SDS011;667;48.796;9.480;2024-02-28T10:45:36;24.25;;;15.98;;
1346;SDS011;667;48.796;9.480;2024-02-28T10:48:05;28.65;;;17.50;;
1346;SDS011;667;48.796;9.480;2024-02-28T10:50:32;25.40;;;16.55;;
1346;SDS011;667;48.796;9.480;2024-02-28T10:53:00;22.58;;;14.93;;
1346;SDS011;667;48.796;9.480;2024-02-28T10:55:27;24.48;;;14.82;;
1346;SDS011;667;48.796;9.480;2024-02-28T10:58:00;22.70;;;15.30;;
1346;SDS011;667;48.796;9.480;2024-02-28T11:00:32;23.80;;;15.27;;
1346;SDS011;667;48.796;9.480;2024-02-28T11:02:59;24.33;;;15.40;;
1346;SDS011;667;48.796;9.480;2024-02-28T11:05:34;24.70;;;16.15;;
1346;SDS011;667;48.796;9.480;2024-02-28T11:08:05;23.88;;;14.82;;
1346;SDS011;667;48.796;9.480;2024-02-28T11:10:44;22.80;;;14.30;;
1346;SDS011;667;48.796;9.480;2024-02-28T11:13:21;26.85;;;15.60;;
1346;SDS011;667;48.796;9.480;2024-02-28T11:15:51;20.92;;;14.30;;
1346;SDS011;667;48.796;9.480;2024-02-28T11:18:17;22.90;;;15.73;;
1346;SDS011;667;48.796;9.480;2024-02-28T11:20:43;26.07;;;16.73;;
1346;SDS011;667;48.796;9.480;2024-02-28T11:23:11;26.65;;;17.05;;
1346;SDS011;667;48.796;9.480;2024-02-28T11:25:37;26.73;;;16.00;;
1346;SDS011;667;48.796;9.480;2024-02-28T11:28:03;33.90;;;16.37;;
1346;SDS011;667;48.796;9.480;2024-02-28T11:30:30;29.15;;;16.63;;
1346;SDS011;667;48.796;9.480;2024-02-28T11:32:56;27.23;;;17.38;;
1346;SDS011;667;48.796;9.480;2024-02-28T11:35:24;23.77;;;16.27;;
1346;SDS011;667;48.796;9.480;2024-02-28T11:37:54;25.27;;;17.33;;
1346;SDS011;667;48.796;9.480;2024-02-28T11:40:22;25.65;;;16.20;;
1346;SDS011;667;48.796;9.480;2024-02-28T11:42:52;26.75;;;17.10;;
1346;SDS011;667;48.796;9.480;2024-02-28T11:45:18;26.73;;;16.08;;
1346;SDS011;667;48.796;9.480;2024-02-28T11:47:44;25.10;;;17.90;;
1346;SDS011;667;48.796;9.480;2024-02-28T11:50:10;24.88;;;15.90;;
1346;SDS011;667;48.796;9.480;2024-02-28T11:52:36;30.40;;;18.00;;
1346;SDS011;667;48.796;9.480;2024-02-28T11:55:02;39.65;;;21.50;;
1346;SDS011;667;48.796;9.480;2024-02-28T11:57:28;33.40;;;19.50;;
1346;SDS011;667;48.796;9.480;2024-02-28T11:59:55;24.88;;;15.68;;
1346;SDS011;667;48.796;9.480;2024-02-28T12:02:22;26.00;;;16.20;;
1346;SDS011;667;48.796;9.480;2024-02-28T12:04:50;24.02;;;14.20;;
1346;SDS011;667;48.796;9.480;2024-02-28T12:07:17;21.25;;;15.00;;
1346;SDS011;667;48.796;9.480;2024-02-28T12:09:43;20.60;;;14.00;;
1346;SDS011;667;48.796;9.480;2024-02-28T12:12:09;22.77;;;15.47;;
1346;SDS011;667;48.796;9.480;2024-02-28T12:14:37;21.15;;;14.55;;
1346;SDS011;667;48.796;9.480;2024-02-28T12:17:08;28.17;;;14.93;;
1346;SDS011;667;48.796;9.480;2024-02-28T12:19:35;23.02;;;14.65;;
1346;SDS011;667;48.796;9.480;2024-02-28T12:22:00;22.37;;;13.80;;
1346;SDS011;667;48.796;9.480;2024-02-28T12:24:26;19.57;;;13.80;;
1346;SDS011;667;48.796;9.480;2024-02-28T12:26:51;20.50;;;13.67;;
1346;SDS011;667;48.796;9.480;2024-02-28T12:29:17;21.20;;;13.90;;
1346;SDS011;667;48.796;9.480;2024-02-28T12:31:43;22.87;;;14.10;;
1346;SDS011;667;48.796;9.480;2024-02-28T12:34:09;19.30;;;13.13;;
1346;SDS011;667;48.796;9.480;2024-02-28T12:36:34;19.20;;;13.40;;
1346;SDS011;667;48.796;9.480;2024-02-28T12:39:00;21.60;;;13.70;;
1346;SDS011;667;48.796;9.480;2024-02-28T12:41:26;24.93;;;14.50;;
1346;SDS011;667;48.796;9.480;2024-02-28T12:43:52;21.15;;;14.45;;
1346;SDS011;667;48.796;9.480;2024-02-28T12:46:17;21.93;;;14.47;;
1346;SDS011;667;48.796;9.480;2024-02-28T12:48:43;22.77;;;15.43;;
1346;SDS011;667;48.796;9.480;2024-02-28T12:51:20;24.88;;;14.38;;
1346;SDS011;667;48.796;9.480;2024-02-28T12:54:00;23.83;;;14.43;;
1346;SDS011;667;48.796;9.480;2024-02-28T12:56:26;21.15;;;14.80;;
1346;SDS011;667;48.796;9.480;2024-02-28T12:58:52;21.43;;;14.07;;
1346;SDS011;667;48.796;9.480;2024-02-28T13:01:17;23.73;;;15.77;;
1346;SDS011;667;48.796;9.480;2024-02-28T13:03:43;21.10;;;12.87;;
1346;SDS011;667;48.796;9.480;2024-02-28T13:06:08;23.60;;;15.57;;
1346;SDS011;667;48.796;9.480;2024-02-28T13:08:34;27.50;;;16.23;;
1346;SDS011;667;48.796;9.480;2024-02-28T13:10:59;22.13;;;15.10;;
1346;SDS011;667;48.796;9.480;2024-02-28T13:13:26;27.08;;;15.52;;
1346;SDS011;667;48.796;9.480;2024-02-28T13:15:51;22.20;;;14.70;;
1346;SDS011;667;48.796;9.480;2024-02-28T13:18:17;24.47;;;15.27;;
1346;SDS011;667;48.796;9.480;2024-02-28T13:20:42;25.67;;;15.80;;
1346;SDS011;667;48.796;9.480;2024-02-28T13:23:08;23.33;;;13.47;;
1346;SDS011;667;48.796;9.480;2024-02-28T13:25:33;23.63;;;14.50;;
1346;SDS011;667;48.796;9.480;2024-02-28T13:27:59;22.67;;;15.40;;
1346;SDS011;667;48.796;9.480;2024-02-28T13:30:24;17.40;;;13.70;;
1346;SDS011;667;48.796;9.480;2024-02-28T13:32:50;20.53;;;13.97;;
1346;SDS011;667;48.796;9.480;2024-02-28T13:35:16;22.13;;;14.47;;
1346;SDS011;667;48.796;9.480;2024-02-28T13:37:42;23.13;;;13.27;;
1346;SDS011;667;48.796;9.480;2024-02-28T13:40:08;20.15;;;13.70;;
1346;SDS011;667;48.796;9.480;2024-02-28T13:42:35;19.48;;;13.00;;
1346;SDS011;667;48.796;9.480;2024-02-28T13:45:02;24.27;;;14.35;;
1346;SDS011;667;48.796;9.480;2024-02-28T13:47:32;22.10;;;14.82;;
1346;SDS011;667;48.796;9.480;2024-02-28T13:49:58;23.52;;;15.82;;
1346;SDS011;667;48.796;9.480;2024-02-28T13:52:24;21.48;;;14.25;;
1346;SDS011;667;48.796;9.480;2024-02-28T13:54:49;20.27;;;13.93;;
1346;SDS011;667;48.796;9.480;2024-02-28T13:57:17;19.48;;;13.15;;
1346;SDS011;667;48.796;9.480;2024-02-28T13:59:42;20.20;;;13.50;;
1346;SDS011;667;48.796;9.480;2024-02-28T14:02:10;22.23;;;14.60;;
1346;SDS011;667;48.796;9.480;2024-02-28T14:04:37;23.27;;;14.88;;
1346;SDS011;667;48.796;9.480;2024-02-28T14:07:03;21.33;;;14.02;;
1346;SDS011;667;48.796;9.480;2024-02-28T14:09:28;19.00;;;12.70;;
1346;SDS011;667;48.796;9.480;2024-02-28T14:11:54;19.23;;;13.30;;
1346;SDS011;667;48.796;9.480;2024-02-28T14:14:20;21.37;;;13.30;;
1346;SDS011;667;48.796;9.480;2024-02-28T14:16:45;17.57;;;12.80;;
1346;SDS011;667;48.796;9.480;2024-02-28T14:19:11;18.80;;;12.23;;
1346;SDS011;667;48.796;9.480;2024-02-28T14:21:36;16.30;;;12.17;;
1346;SDS011;667;48.796;9.480;2024-02-28T14:24:02;21.03;;;13.47;;
1346;SDS011;667;48.796;9.480;2024-02-28T14:26:28;19.60;;;12.90;;
1346;SDS011;667;48.796;9.480;2024-02-28T14:28:53;17.00;;;13.33;;
1346;SDS011;667;48.796;9.480;2024-02-28T14:31:20;21.30;;;11.98;;
1346;SDS011;667;48.796;9.480;2024-02-28T14:33:46;17.77;;;12.23;;
1346;SDS011;667;48.796;9.480;2024-02-28T14:36:12;18.17;;;12.83;;
1346;SDS011;667;48.796;9.480;2024-02-28T14:38:39;24.60;;;13.73;;
1346;SDS011;667;48.796;9.480;2024-02-28T14:41:04;21.53;;;13.40;;
1346;SDS011;667;48.796;9.480;2024-02-28T14:43:31;19.40;;;13.20;;
1346;SDS011;667;48.796;9.480;2024-02-28T14:45:57;18.70;;;12.90;;
1346;SDS011;667;48.796;9.480;2024-02-28T14:48:23;19.53;;;13.20;;
1346;SDS011;667;48.796;9.480;2024-02-28T14:50:48;17.47;;;12.40;;
1346;SDS011;667;48.796;9.480;2024-02-28T14:53:14;18.80;;;12.63;;
1346;SDS011;667;48.796;9.480;2024-02-28T14:55:41;18.35;;;11.57;;
1346;SDS011;667;48.796;9.480;2024-02-28T14:58:09;17.27;;;12.93;;